Time;durP1;ratioP1;P1;durP2;ratioP2;P2;SDS_P1;SDS_P2;PMS_P1;PMS_P2;Temp;Humidity;BMP_temperature;BMP_pressure;BME280_temperature;BME280_humidity;BME280_pressure;Samples;Min_cycle;Max_cycle;Signal;HPM_P1;HPM_P2
2021/01/13 00:01:12;;;;;;;49.83;24.67;;;-0.90;99.90;;;;;;4994952;28;20548;-79
2021/01/13 00:03:37;;;;;;;53.60;27.00;;;-0.80;99.90;;;;;;4996205;28;20030;-79
2021/01/13 00:06:03;;;;;;;47.47;24.30;;;-0.80;99.90;;;;;;4994956;28;20053;-80
2021/01/13 00:08:29;;;;;;;44.88;20.75;;;-0.80;99.90;;;;;;5011232;28;20480;-79
2021/01/13 00:10:54;;;;;;;44.53;20.75;;;-0.80;99.90;;;;;;4996178;28;20503;-79
2021/01/13 00:13:20;;;;;;;39.58;18.27;;;-0.80;99.90;;;;;;4994670;28;20440;-79
2021/01/13 00:15:45;;;;;;;42.35;19.80;;;-0.70;99.90;;;;;;4994765;28;20027;-79
2021/01/13 00:18:12;;;;;;;45.10;20.77;;;-0.70;99.90;;;;;;4994586;28;20081;-79
2021/01/13 00:20:37;;;;;;;34.85;17.73;;;-0.80;99.90;;;;;;4994771;28;20046;-79
2021/01/13 00:23:03;;;;;;;38.22;17.80;;;-0.70;99.90;;;;;;5010857;28;20053;-79
2021/01/13 00:25:29;;;;;;;40.30;17.98;;;-0.70;99.90;;;;;;5010887;28;20137;-79
2021/01/13 00:27:55;;;;;;;42.28;19.95;;;-0.70;99.90;;;;;;4994547;28;20120;-79
2021/01/13 00:30:21;;;;;;;42.45;17.92;;;-0.70;99.90;;;;;;4994537;28;20018;-79
2021/01/13 00:32:46;;;;;;;34.67;18.40;;;-0.70;99.90;;;;;;4995274;28;20062;-79
2021/01/13 00:35:13;;;;;;;40.17;19.05;;;-0.70;99.90;;;;;;4994329;28;20018;-79
2021/01/13 00:37:40;;;;;;;45.47;19.90;;;-0.70;99.90;;;;;;4994339;28;20033;-79
2021/01/13 00:40:07;;;;;;;36.50;19.75;;;-0.70;99.90;;;;;;5010627;28;20026;-79
2021/01/13 00:42:33;;;;;;;35.63;16.80;;;-0.70;99.90;;;;;;4994249;28;20113;-79
2021/01/13 00:44:58;;;;;;;38.88;18.58;;;-0.70;99.90;;;;;;4994086;28;20542;-79
2021/01/13 00:47:24;;;;;;;39.60;18.58;;;-0.70;99.90;;;;;;5010467;28;20021;-79
2021/01/13 00:49:50;;;;;;;40.67;19.35;;;-0.70;99.90;;;;;;4994050;28;20015;-79
2021/01/13 00:52:15;;;;;;;27.40;15.68;;;-0.60;99.90;;;;;;4994063;28;20030;-79
2021/01/13 00:54:41;;;;;;;27.38;14.57;;;-0.60;99.90;;;;;;4995298;28;20105;-79
2021/01/13 00:57:08;;;;;;;30.58;15.27;;;-0.60;99.90;;;;;;4995267;28;20033;-79
2021/01/13 00:59:34;;;;;;;29.42;14.35;;;-0.60;99.90;;;;;;4993971;28;20058;-79
2021/01/13 01:01:59;;;;;;;26.92;13.63;;;-0.60;99.90;;;;;;4993868;28;20042;-79
2021/01/13 01:04:25;;;;;;;20.73;12.10;;;-0.50;99.90;;;;;;4993848;28;20113;-79
2021/01/13 01:06:51;;;;;;;20.45;11.57;;;-0.50;99.90;;;;;;4993827;28;20074;-79
2021/01/13 01:09:16;;;;;;;21.25;10.82;;;-0.50;99.90;;;;;;4995194;28;20503;-79
2021/01/13 01:11:43;;;;;;;23.88;11.38;;;-0.50;99.90;;;;;;4994963;28;20038;-79
2021/01/13 01:14:10;;;;;;;22.65;12.50;;;-0.50;99.90;;;;;;4994860;28;20031;-79
2021/01/13 01:16:38;;;;;;;23.88;12.00;;;-0.50;99.90;;;;;;5009965;28;20024;-79
2021/01/13 01:19:05;;;;;;;18.02;10.68;;;-0.50;99.90;;;;;;4994758;28;20034;-79
2021/01/13 01:21:31;;;;;;;21.65;8.93;;;-0.50;99.90;;;;;;4994860;28;20531;-79
2021/01/13 01:23:57;;;;;;;14.95;9.57;;;-0.50;99.90;;;;;;4994717;28;20034;-79
2021/01/13 01:26:23;;;;;;;12.10;6.97;;;-0.50;99.90;;;;;;4993486;28;20072;-79
2021/01/13 01:28:48;;;;;;;17.40;9.15;;;-0.50;99.90;;;;;;4993398;28;20121;-79
2021/01/13 01:31:14;;;;;;;10.27;7.07;;;-0.50;99.90;;;;;;4994485;28;20026;-79
2021/01/13 01:33:40;;;;;;;12.60;7.18;;;-0.50;99.90;;;;;;4993303;28;20034;-79
2021/01/13 01:36:06;;;;;;;10.90;5.90;;;-0.50;99.90;;;;;;4993210;28;20033;-79
2021/01/13 01:38:31;;;;;;;12.05;7.82;;;-0.60;99.90;;;;;;4993200;28;20518;-79
2021/01/13 01:41:05;;;;;;;13.10;6.93;;;-0.60;99.90;;;;;;4994393;28;20018;-79
2021/01/13 01:43:30;;;;;;;12.27;7.50;;;-0.60;99.90;;;;;;4993101;28;20502;-79
2021/01/13 01:45:56;;;;;;;10.63;6.43;;;-0.70;99.90;;;;;;4993030;28;20022;-79
2021/01/13 01:48:48;;;;;;;12.85;6.82;;;-0.70;99.90;;;;;;4992634;28;20022;-79
2021/01/13 01:51:19;;;;;;;10.10;7.10;;;-0.70;99.90;;;;;;4989983;28;20038;-79
2021/01/13 01:53:50;;;;;;;9.88;6.28;;;-0.80;99.90;;;;;;4994122;28;20085;-79
2021/01/13 01:56:19;;;;;;;10.68;6.55;;;-0.80;99.90;;;;;;4992872;28;20031;-80
2021/01/13 01:58:49;;;;;;;9.50;5.68;;;-0.90;99.90;;;;;;4992796;28;20431;-79
2021/01/13 02:01:28;;;;;;;12.98;7.95;;;-0.90;99.90;;;;;;4994109;28;20019;-79
2021/01/13 02:03:55;;;;;;;11.40;5.85;;;-1.00;99.90;;;;;;4992662;28;20026;-79
2021/01/13 02:06:31;;;;;;;11.43;6.20;;;-1.10;99.90;;;;;;4993999;28;20022;-79
2021/01/13 02:08:57;;;;;;;9.85;6.18;;;-1.10;99.90;;;;;;4993904;28;20038;-79
2021/01/13 02:11:25;;;;;;;7.45;5.72;;;-1.20;99.90;;;;;;4992573;28;20495;-79
2021/01/13 02:13:51;;;;;;;8.45;4.82;;;-1.20;99.90;;;;;;4993793;28;20022;-79
2021/01/13 02:16:18;;;;;;;7.55;4.75;;;-1.30;99.90;;;;;;4992622;28;20480;-79
2021/01/13 02:18:45;;;;;;;6.82;4.55;;;-1.30;99.90;;;;;;4993717;28;20037;-79
2021/01/13 02:21:17;;;;;;;7.65;4.85;;;-1.40;99.90;;;;;;4992117;28;20054;-79
2021/01/13 02:24:00;;;;;;;5.88;4.57;;;-1.40;99.90;;;;;;5008763;28;20109;-79
2021/01/13 02:26:44;;;;;;;;;;;-1.40;99.90;;;;;;4992759;28;20034;-79
2021/01/13 02:29:10;;;;;;;5.28;4.05;;;-1.50;99.90;;;;;;5025203;28;19905;-79
2021/01/13 02:31:53;;;;;;;7.88;4.47;;;-1.50;99.90;;;;;;4993658;28;20030;-79
2021/01/13 02:34:32;;;;;;;7.15;4.70;;;-1.60;99.90;;;;;;5008721;28;20022;-79
2021/01/13 02:37:23;;;;;;;8.18;5.18;;;-1.60;99.90;;;;;;4992384;28;20084;-79
2021/01/13 02:39:50;;;;;;;6.18;4.63;;;-1.70;99.90;;;;;;4992330;28;20503;-79
2021/01/13 02:42:23;;;;;;;8.50;4.57;;;-1.70;99.90;;;;;;4992285;28;20029;-79
2021/01/13 02:45:03;;;;;;;7.30;4.95;;;-1.70;99.90;;;;;;4992320;28;20025;-79
2021/01/13 02:47:46;;;;;;;10.90;4.40;;;-1.70;99.90;;;;;;4992318;28;20014;-79
2021/01/13 02:50:22;;;;;;;5.28;3.80;;;-1.70;99.90;;;;;;4992220;28;20026;-79
2021/01/13 02:53:26;;;;;;;7.82;5.18;;;-1.70;99.90;;;;;;5008475;28;20042;-79
2021/01/13 02:56:05;;;;;;;9.15;5.72;;;-1.70;99.90;;;;;;5008577;28;20023;-79
2021/01/13 02:58:37;;;;;;;15.15;7.18;;;-1.60;99.90;;;;;;4992174;28;20114;-78
2021/01/13 03:01:08;;;;;;;9.73;4.90;;;-1.60;99.90;;;;;;4995341;28;20014;-79
2021/01/13 03:03:35;;;;;;;9.00;4.15;;;-1.60;99.90;;;;;;4996136;28;20032;-79
2021/01/13 03:06:09;;;;;;;4.85;3.95;;;-1.60;99.90;;;;;;4997327;28;20039;-79
2021/01/13 03:08:50;;;;;;;10.38;4.88;;;-1.50;99.90;;;;;;4995138;28;20484;-78
2021/01/13 03:11:19;;;;;;;8.77;5.55;;;-1.50;99.90;;;;;;5010519;28;20026;-79
2021/01/13 03:13:46;;;;;;;10.85;5.65;;;-1.40;99.90;;;;;;4994653;28;20445;-79
2021/01/13 03:16:13;;;;;;;6.97;5.32;;;-1.40;99.90;;;;;;4994517;28;20054;-79
2021/01/13 03:18:54;;;;;;;7.38;4.72;;;-1.40;99.90;;;;;;4994507;28;20026;-79
2021/01/13 03:21:25;;;;;;;6.55;5.00;;;-1.40;99.90;;;;;;4994555;28;20026;-79
2021/01/13 03:24:11;;;;;;;7.03;5.53;;;-1.40;99.90;;;;;;4994528;28;20077;-79
2021/01/13 03:26:41;;;;;;;8.15;5.43;;;-1.40;99.90;;;;;;4994565;28;20018;-79
2021/01/13 03:29:11;;;;;;;11.65;6.22;;;-1.40;99.90;;;;;;4994472;28;20126;-79
2021/01/13 03:31:52;;;;;;;9.60;5.72;;;-1.30;99.90;;;;;;4995655;28;20045;-79
2021/01/13 03:34:28;;;;;;;12.93;5.68;;;-1.30;99.90;;;;;;4995775;28;20033;-79
2021/01/13 03:37:15;;;;;;;12.02;7.30;;;-1.30;99.90;;;;;;4994311;28;20026;-79
2021/01/13 03:39:40;;;;;;;307.35;100.93;;;-1.30;99.90;;;;;;4995753;28;20027;-79
2021/01/13 03:42:09;;;;;;;315.08;100.85;;;-1.30;99.90;;;;;;4994173;28;20483;-79
2021/01/13 03:44:37;;;;;;;907.13;359.50;;;-1.30;99.90;;;;;;4994032;28;20026;-79
2021/01/13 03:47:15;;;;;;;613.30;228.13;;;-1.30;99.90;;;;;;4994073;28;20026;-79
2021/01/13 03:50:11;;;;;;;894.72;346.70;;;-1.30;99.90;;;;;;4994055;28;20373;-79
2021/01/13 03:53:00;;;;;;;822.33;308.60;;;-1.30;99.90;;;;;;4994059;28;20038;-79
2021/01/13 03:55:32;;;;;;;126.68;39.10;;;-1.30;99.90;;;;;;4995278;28;20093;-79
2021/01/13 03:57:57;;;;;;;536.85;176.65;;;-1.20;99.90;;;;;;4993927;28;20027;-79
2021/01/13 04:00:29;;;;;;;511.42;168.63;;;-1.20;99.90;;;;;;4993927;28;20023;-79
2021/01/13 04:03:22;;;;;;;104.78;32.28;;;-1.20;99.90;;;;;;4993842;28;20050;-79
2021/01/13 04:06:03;;;;;;;104.20;28.75;;;-1.20;99.90;;;;;;4995082;28;20026;-79
2021/01/13 04:08:43;;;;;;;32.70;13.93;;;-1.20;99.90;;;;;;4972392;28;641974;-79
2021/01/13 04:11:22;;;;;;;43.55;16.75;;;-1.30;99.90;;;;;;4995761;28;20395;-79
2021/01/13 04:13:49;;;;;;;50.75;18.08;;;-1.20;99.90;;;;;;4996031;28;20049;-79
2021/01/13 04:16:17;;;;;;;22.92;10.98;;;-1.20;99.90;;;;;;4994734;28;20026;-79
2021/01/13 04:18:45;;;;;;;36.78;14.77;;;-1.30;99.90;;;;;;4996078;28;20433;-79
2021/01/13 04:21:13;;;;;;;36.85;14.98;;;-1.20;99.90;;;;;;4995999;28;20015;-79
2021/01/13 04:23:40;;;;;;;45.97;20.33;;;-1.20;99.90;;;;;;4995985;28;20018;-79
2021/01/13 04:26:06;;;;;;;33.90;14.73;;;-1.20;99.90;;;;;;4994482;28;20026;-79
2021/01/13 04:28:32;;;;;;;31.13;13.02;;;-1.20;99.90;;;;;;4994460;28;20041;-79
2021/01/13 04:30:58;;;;;;;20.15;11.45;;;-1.20;99.90;;;;;;4994512;28;20431;-79
2021/01/13 04:33:25;;;;;;;34.53;15.05;;;-1.20;99.90;;;;;;4994343;28;20559;-79
2021/01/13 04:35:51;;;;;;;14.23;9.30;;;-1.20;99.90;;;;;;4995684;28;20023;-79
2021/01/13 04:38:22;;;;;;;16.13;7.68;;;-1.20;99.90;;;;;;5010684;28;20129;-79
2021/01/13 04:40:51;;;;;;;26.30;10.15;;;-1.20;99.90;;;;;;4994438;28;20026;-79
2021/01/13 04:43:42;;;;;;;15.55;9.52;;;-1.20;99.90;;;;;;4994277;28;20073;-79
2021/01/13 04:46:26;;;;;;;18.50;9.63;;;-1.20;99.90;;;;;;4993566;28;20483;-79
2021/01/13 04:49:06;;;;;;;18.77;8.15;;;-1.20;99.90;;;;;;4995509;28;20097;-79
2021/01/13 04:51:39;;;;;;;13.93;9.48;;;-1.20;99.90;;;;;;4994144;28;20037;-79
2021/01/13 04:54:15;;;;;;;;;;;-1.20;99.90;;;;;;4994795;28;20497;-79
2021/01/13 04:56:44;;;;;;;24.13;10.98;;;-1.20;99.90;;;;;;4995473;28;20382;-79
2021/01/13 04:59:12;;;;;;;24.20;12.00;;;-1.20;99.90;;;;;;4993914;28;20476;-79
2021/01/13 05:01:55;;;;;;;23.35;10.82;;;-1.20;99.90;;;;;;4995247;28;20030;-79
2021/01/13 05:04:27;;;;;;;18.45;7.55;;;-1.20;99.90;;;;;;4995177;28;20395;-79
2021/01/13 05:07:13;;;;;;;16.40;7.55;;;-1.20;99.90;;;;;;4993848;28;20050;-79
2021/01/13 05:09:51;;;;;;;13.90;8.27;;;-1.20;99.90;;;;;;4995405;28;20026;-79
2021/01/13 05:12:17;;;;;;;27.85;13.48;;;-1.20;99.90;;;;;;4995006;28;20093;-79
2021/01/13 05:14:44;;;;;;;20.08;10.65;;;-1.20;99.90;;;;;;4993697;28;20025;-79
2021/01/13 05:17:36;;;;;;;11.25;7.18;;;-1.20;99.90;;;;;;4993690;28;20026;-79
2021/01/13 05:20:16;;;;;;;18.17;8.00;;;-1.20;99.90;;;;;;4991574;28;20117;-79
2021/01/13 05:22:43;;;;;;;15.23;8.55;;;-1.20;99.90;;;;;;4993953;28;20113;-79
2021/01/13 05:25:09;;;;;;;11.05;5.75;;;-1.20;99.90;;;;;;4997205;28;20121;-79
2021/01/13 05:27:47;;;;;;;10.65;5.55;;;-1.20;99.90;;;;;;5014322;28;20026;-79
2021/01/13 05:30:13;;;;;;;6.53;4.78;;;-1.20;99.90;;;;;;5012986;28;20026;-79
2021/01/13 05:32:42;;;;;;;13.13;5.00;;;-1.20;99.90;;;;;;5014129;28;20072;-79
2021/01/13 05:35:09;;;;;;;5.53;3.60;;;-1.20;99.90;;;;;;5013182;28;20077;-79
2021/01/13 05:37:48;;;;;;;6.75;4.40;;;-1.20;99.90;;;;;;5014155;28;20510;-79
2021/01/13 05:40:18;;;;;;;7.35;5.18;;;-1.20;99.90;;;;;;5008902;28;20093;-79
2021/01/13 05:42:44;;;;;;;7.60;5.00;;;-1.20;99.90;;;;;;5011668;28;20026;-79
2021/01/13 05:45:12;;;;;;;9.45;4.78;;;-1.20;99.90;;;;;;5011359;28;20022;-79
2021/01/13 05:47:47;;;;;;;7.45;5.13;;;-1.20;99.90;;;;;;5012063;28;20092;-79
2021/01/13 05:50:16;;;;;;;8.57;4.93;;;-1.20;99.90;;;;;;5013204;28;20022;-79
2021/01/13 05:52:42;;;;;;;4.97;3.15;;;-1.30;99.90;;;;;;5012219;28;20537;-79
2021/01/13 05:55:08;;;;;;;9.13;3.53;;;-1.30;99.90;;;;;;5011794;28;20022;-79
2021/01/13 05:57:36;;;;;;;3.05;2.72;;;-1.30;99.90;;;;;;5013745;28;20383;-79
2021/01/13 06:00:04;;;;;;;5.88;3.42;;;-1.40;99.90;;;;;;5013404;28;20026;-79
2021/01/13 06:02:41;;;;;;;4.38;3.40;;;-1.30;99.90;;;;;;5011358;28;20442;-79
2021/01/13 06:05:06;;;;;;;8.32;3.60;;;-1.40;99.90;;;;;;5012098;28;20022;-78
2021/01/13 06:07:34;;;;;;;3.33;2.92;;;-1.40;99.90;;;;;;5012361;28;20483;-78
2021/01/13 06:10:01;;;;;;;6.05;3.75;;;-1.50;99.90;;;;;;4993365;28;20376;-79
2021/01/13 06:12:30;;;;;;;4.80;2.53;;;-1.50;99.90;;;;;;4993808;28;20042;-79
2021/01/13 06:14:56;;;;;;;13.07;6.88;;;-1.70;99.90;;;;;;5008884;28;20032;-79
2021/01/13 06:17:23;;;;;;;46.13;19.92;;;-1.70;99.90;;;;;;4994812;28;20026;-78
2021/01/13 06:19:58;;;;;;;33.20;14.55;;;-1.70;99.90;;;;;;4992404;28;20029;-79
2021/01/13 06:22:34;;;;;;;6.55;4.03;;;-1.70;99.90;;;;;;4992477;28;20507;-79
2021/01/13 06:25:04;;;;;;;104.75;35.92;;;-1.80;99.90;;;;;;4992148;28;20033;-79
2021/01/13 06:27:59;;;;;;;10.98;4.45;;;-1.80;99.90;;;;;;4992441;28;20050;-79
2021/01/13 06:30:28;;;;;;;102.75;46.72;;;-1.90;99.90;;;;;;4986202;28;20037;-79
2021/01/13 06:33:03;;;;;;;7.97;4.43;;;-2.00;99.90;;;;;;4993044;28;20031;-80
2021/01/13 06:35:40;;;;;;;6.80;3.90;;;-2.10;99.90;;;;;;4993882;28;20026;-79
2021/01/13 06:38:10;;;;;;;7.10;3.13;;;-2.10;99.90;;;;;;5002901;28;20488;-79
2021/01/13 06:40:37;;;;;;;17.67;11.73;;;-2.10;99.90;;;;;;5003917;28;20391;-79
2021/01/13 06:43:15;;;;;;;6.93;4.40;;;-2.20;99.90;;;;;;5008614;28;20054;-79
2021/01/13 06:45:41;;;;;;;21.27;13.30;;;-2.20;99.90;;;;;;4992248;28;20058;-79
2021/01/13 06:48:07;;;;;;;6.43;3.88;;;-2.30;99.90;;;;;;4993378;28;20503;-79
2021/01/13 06:50:41;;;;;;;28.80;20.88;;;-2.20;99.90;;;;;;4992084;28;20615;-79
2021/01/13 06:53:08;;;;;;;14.48;7.75;;;-2.30;99.90;;;;;;4993306;28;20035;-80
2021/01/13 06:55:35;;;;;;;6.65;4.15;;;-2.30;99.90;;;;;;4909905;28;20037;-80
2021/01/13 06:58:14;;;;;;;4.88;3.83;;;-2.40;99.90;;;;;;5001327;28;20546;-80
2021/01/13 07:00:41;;;;;;;4.47;3.28;;;-2.40;99.90;;;;;;4992279;28;20034;-80
2021/01/13 07:03:29;;;;;;;8.30;4.88;;;-2.40;99.90;;;;;;4998240;28;20022;-79
2021/01/13 07:05:59;;;;;;;7.63;5.30;;;-2.40;99.90;;;;;;5002560;28;20025;-79
2021/01/13 07:08:25;;;;;;;8.57;3.60;;;-2.30;99.90;;;;;;5011539;28;20458;-80
2021/01/13 07:11:04;;;;;;;6.85;3.83;;;-2.30;99.90;;;;;;5027980;28;20105;-80
2021/01/13 07:13:33;;;;;;;5.60;5.03;;;-2.20;99.90;;;;;;5011056;28;20034;-76
2021/01/13 07:16:01;;;;;;;10.20;5.35;;;-2.20;99.90;;;;;;5010302;28;20088;-77
2021/01/13 07:18:27;;;;;;;6.22;4.15;;;-2.20;99.90;;;;;;5010148;28;20068;-77
2021/01/13 07:20:54;;;;;;;12.75;4.70;;;-2.20;99.90;;;;;;5010115;28;20396;-79
2021/01/13 07:23:21;;;;;;;10.20;5.38;;;-2.20;99.90;;;;;;5011078;28;20022;-79
2021/01/13 07:25:50;;;;;;;23.45;12.75;;;-2.20;99.90;;;;;;5011201;28;20487;-79
2021/01/13 07:28:17;;;;;;;25.55;13.55;;;-2.10;99.90;;;;;;5011413;28;20022;-79
2021/01/13 07:30:44;;;;;;;65.45;32.40;;;-2.10;99.90;;;;;;5002634;28;20549;-80
2021/01/13 07:33:14;;;;;;;35.40;16.77;;;-2.00;99.90;;;;;;4998338;28;20041;-79
2021/01/13 07:35:50;;;;;;;20.15;9.20;;;-2.00;99.90;;;;;;4976808;28;20154;-79
2021/01/13 07:38:17;;;;;;;21.60;8.15;;;-1.90;99.90;;;;;;4973659;28;20027;-80
2021/01/13 07:40:58;;;;;;;42.92;20.42;;;-1.80;99.90;;;;;;4974323;28;20100;-78
2021/01/13 07:43:51;;;;;;;237.35;97.05;;;-1.80;99.90;;;;;;4989028;28;20041;-78
2021/01/13 07:46:27;;;;;;;281.50;126.38;;;-1.70;99.90;;;;;;4974992;28;20030;-79
2021/01/13 07:49:21;;;;;;;92.55;38.72;;;-1.70;99.90;;;;;;4994682;28;20049;-78
2021/01/13 07:51:57;;;;;;;114.15;51.25;;;-1.60;99.90;;;;;;4991938;28;20507;-78
2021/01/13 07:54:27;;;;;;;125.93;56.40;;;-1.60;99.90;;;;;;5014447;28;20415;-79
2021/01/13 07:56:57;;;;;;;108.93;39.42;;;-1.50;99.90;;;;;;5015547;28;20018;-78
2021/01/13 07:59:51;;;;;;;43.85;18.63;;;-1.40;99.90;;;;;;5015536;28;20029;-79
2021/01/13 08:02:44;;;;;;;90.22;29.20;;;-1.50;99.90;;;;;;5014548;28;20034;-78
2021/01/13 08:05:33;;;;;;;166.48;59.78;;;-1.50;99.90;;;;;;5003205;28;20495;-78
2021/01/13 08:08:09;;;;;;;135.20;51.85;;;-1.50;99.90;;;;;;4995920;28;20030;-79
2021/01/13 08:10:37;;;;;;;99.40;34.08;;;-1.40;99.90;;;;;;5011543;28;20027;-78
2021/01/13 08:13:06;;;;;;;82.30;27.63;;;-1.50;99.90;;;;;;4995901;28;20065;-79
2021/01/13 08:15:49;;;;;;;39.67;15.73;;;-1.40;99.90;;;;;;4995796;28;20030;-80
2021/01/13 08:18:55;;;;;;;91.97;25.95;;;-1.30;99.90;;;;;;4994651;28;20029;-79
2021/01/13 08:21:24;;;;;;;45.75;18.83;;;-1.30;99.90;;;;;;5010386;28;20027;-78
2021/01/13 08:24:14;;;;;;;62.50;21.02;;;-1.30;99.90;;;;;;4977841;28;20076;-79
2021/01/13 08:26:40;;;;;;;19.95;8.30;;;-1.30;99.90;;;;;;4987129;28;20038;-78
2021/01/13 08:29:06;;;;;;;64.32;24.83;;;-1.20;99.90;;;;;;4994035;28;20026;-78
2021/01/13 08:31:33;;;;;;;38.33;14.38;;;-1.10;99.90;;;;;;4994146;28;20034;-78
2021/01/13 08:34:08;;;;;;;60.20;22.35;;;-1.10;99.90;;;;;;4987747;28;20613;-79
2021/01/13 08:36:54;;;;;;;78.20;28.13;;;-1.10;99.90;;;;;;4994019;28;20038;-78
2021/01/13 08:39:28;;;;;;;28.48;11.95;;;-1.10;99.90;;;;;;4991933;28;20022;-79
2021/01/13 08:42:14;;;;;;;29.48;14.15;;;-1.10;99.90;;;;;;4989339;28;20575;-78
2021/01/13 08:44:40;;;;;;;31.00;15.13;;;-1.00;99.90;;;;;;4989368;28;20034;-78
2021/01/13 08:47:06;;;;;;;37.00;16.30;;;-0.90;99.90;;;;;;5005625;28;20030;-79
2021/01/13 08:49:32;;;;;;;30.27;11.70;;;-0.90;99.90;;;;;;4990010;28;20065;-78
2021/01/13 08:52:15;;;;;;;13.77;7.38;;;-0.80;99.90;;;;;;4982409;28;20403;-78
2021/01/13 08:55:04;;;;;;;24.70;9.32;;;-0.80;99.90;;;;;;4993172;28;20034;-77
2021/01/13 08:57:51;;;;;;;13.45;6.85;;;-0.80;99.90;;;;;;4997876;28;20041;-78
2021/01/13 09:00:23;;;;;;;18.63;8.63;;;-0.70;99.90;;;;;;4991177;28;20480;-79
2021/01/13 09:03:11;;;;;;;16.00;6.75;;;-0.80;99.90;;;;;;4992701;28;20027;-78
2021/01/13 09:05:41;;;;;;;17.38;8.65;;;-0.80;99.90;;;;;;4993455;28;20395;-78
2021/01/13 09:08:10;;;;;;;23.08;10.02;;;-0.70;99.90;;;;;;4990394;28;20027;-78
2021/01/13 09:10:47;;;;;;;22.05;9.50;;;-0.50;99.90;;;;;;4994878;28;20026;-78
2021/01/13 09:13:30;;;;;;;19.20;9.30;;;-0.50;99.90;;;;;;4993672;28;20026;-78
2021/01/13 09:15:56;;;;;;;22.63;9.50;;;-0.30;99.90;;;;;;4992621;28;20034;-79
2021/01/13 09:18:23;;;;;;;25.40;11.38;;;-0.30;99.90;;;;;;4992412;28;20031;-78
2021/01/13 09:20:50;;;;;;;8.23;4.80;;;-0.40;99.90;;;;;;4993514;28;20026;-77
2021/01/13 09:23:22;;;;;;;19.00;8.65;;;-0.50;99.90;;;;;;4992980;28;20089;-77
2021/01/13 09:25:55;;;;;;;16.67;8.43;;;-0.40;99.90;;;;;;4991522;28;20407;-77
2021/01/13 09:28:21;;;;;;;;;;;-0.50;99.90;;;;;;4991482;28;20041;-77
2021/01/13 09:30:47;;;;;;;15.05;6.55;;;-0.40;99.90;;;;;;4983665;28;20473;-77
2021/01/13 09:33:18;;;;;;;9.98;4.60;;;-0.40;99.90;;;;;;4972738;28;20037;-78
2021/01/13 09:35:45;;;;;;;12.27;7.25;;;-0.30;99.90;;;;;;4988803;28;20023;-77
2021/01/13 09:38:15;;;;;;;64.18;27.65;;;-0.30;99.90;;;;;;4974178;28;20465;-77
2021/01/13 09:41:07;;;;;;;101.45;42.63;;;-0.20;99.90;;;;;;4973465;28;20027;-78
2021/01/13 09:43:41;;;;;;;193.98;75.88;;;-0.10;99.90;;;;;;4992410;28;20030;-77
2021/01/13 09:46:27;;;;;;;60.70;20.50;;;0.00;99.90;;;;;;4991325;28;20018;-77
2021/01/13 09:49:02;;;;;;;77.20;26.98;;;0.00;99.90;;;;;;4991668;28;20034;-78
2021/01/13 09:51:29;;;;;;;64.82;24.00;;;-0.10;99.90;;;;;;4989890;28;20384;-77
2021/01/13 09:53:57;;;;;;;67.10;26.10;;;-0.20;99.90;;;;;;4990120;28;20117;-78
2021/01/13 09:56:25;;;;;;;75.38;28.13;;;-0.40;99.90;;;;;;4989246;28;20018;-77
2021/01/13 09:58:52;;;;;;;46.85;15.85;;;-0.50;99.90;;;;;;4989056;28;20121;-78
2021/01/13 10:01:48;;;;;;;27.52;12.63;;;-0.40;99.90;;;;;;4992746;28;20030;-77
2021/01/13 10:04:14;;;;;;;33.78;12.60;;;-0.30;99.90;;;;;;4988888;28;20033;-77
2021/01/13 10:06:43;;;;;;;70.03;22.98;;;-0.30;99.90;;;;;;4992150;28;20030;-77
2021/01/13 10:09:13;;;;;;;33.75;16.58;;;-0.30;99.90;;;;;;5007225;28;20034;-77
2021/01/13 10:11:40;;;;;;;20.55;10.20;;;-0.30;99.90;;;;;;4991560;28;20045;-78
2021/01/13 10:14:08;;;;;;;24.90;12.32;;;-0.30;99.90;;;;;;4993619;28;20034;-77
2021/01/13 10:16:40;;;;;;;21.85;10.68;;;-0.30;99.90;;;;;;4991727;28;20072;-78
2021/01/13 10:19:06;;;;;;;24.48;12.23;;;-0.30;99.90;;;;;;4989399;28;20053;-77
2021/01/13 10:21:41;;;;;;;24.00;10.40;;;-0.30;99.90;;;;;;4990999;28;20038;-77
2021/01/13 10:24:09;;;;;;;20.63;11.32;;;-0.20;99.90;;;;;;4991736;28;20038;-77
2021/01/13 10:26:38;;;;;;;20.08;10.02;;;-0.20;99.90;;;;;;4991413;28;20026;-77
2021/01/13 10:29:04;;;;;;;20.98;11.05;;;-0.10;99.90;;;;;;4990471;28;20027;-78
2021/01/13 10:31:32;;;;;;;31.73;14.60;;;-0.10;99.90;;;;;;5006850;28;20030;-77
2021/01/13 10:33:58;;;;;;;29.77;13.48;;;-0.10;99.90;;;;;;4988489;28;20018;-79
2021/01/13 10:36:31;;;;;;;28.10;12.73;;;-0.10;99.90;;;;;;4987724;28;20113;-79
2021/01/13 10:39:17;;;;;;;30.60;14.02;;;-0.20;99.90;;;;;;4971528;28;20037;-77
2021/01/13 10:41:48;;;;;;;28.00;15.15;;;-0.20;99.90;;;;;;4974214;28;20393;-78
2021/01/13 10:44:15;;;;;;;35.80;15.73;;;-0.20;99.90;;;;;;4973477;28;20135;-77
2021/01/13 10:46:42;;;;;;;41.03;19.33;;;-0.30;99.90;;;;;;4990350;28;20030;-78
2021/01/13 10:49:19;;;;;;;39.03;18.92;;;-0.30;99.90;;;;;;4991405;28;20027;-78
2021/01/13 10:51:50;;;;;;;40.35;19.83;;;-0.30;99.90;;;;;;4991962;28;20130;-79
2021/01/13 10:54:21;;;;;;;33.10;15.95;;;-0.30;99.90;;;;;;4992549;28;20379;-79
2021/01/13 10:57:19;;;;;;;30.42;13.93;;;-0.30;99.90;;;;;;4990789;28;20026;-81
2021/01/13 10:59:45;;;;;;;39.30;15.75;;;-0.20;99.90;;;;;;4976229;28;20066;-79
2021/01/13 11:02:14;;;;;;;49.72;22.77;;;-0.20;99.90;;;;;;4973650;28;20493;-79
2021/01/13 11:04:47;;;;;;;22.65;10.98;;;-0.10;99.90;;;;;;4973324;28;20161;-81
2021/01/13 11:07:17;;;;;;;17.70;9.85;;;-0.10;99.90;;;;;;4973080;28;20027;-80
2021/01/13 11:09:44;;;;;;;30.45;12.43;;;0.00;99.90;;;;;;4971766;28;20037;-80
2021/01/13 11:12:17;;;;;;;36.88;14.45;;;0.10;99.90;;;;;;4973472;28;20055;-79
2021/01/13 11:14:46;;;;;;;34.22;14.57;;;0.20;99.90;;;;;;4992456;28;20096;-79
2021/01/13 11:17:20;;;;;;;28.80;13.18;;;0.30;99.90;;;;;;5011337;28;20487;-79
2021/01/13 11:19:55;;;;;;;18.85;10.55;;;0.30;99.90;;;;;;5011721;28;20080;-80
2021/01/13 11:22:30;;;;;;;16.75;9.38;;;0.30;99.90;;;;;;5014950;28;20033;-79
2021/01/13 11:24:57;;;;;;;20.65;8.38;;;0.20;99.90;;;;;;5015715;28;20018;-79
2021/01/13 11:27:24;;;;;;;22.55;10.18;;;0.00;99.90;;;;;;5015420;28;20029;-79
2021/01/13 11:29:55;;;;;;;19.27;10.95;;;0.00;99.90;;;;;;4998500;28;20026;-80
2021/01/13 11:32:29;;;;;;;21.70;10.95;;;-0.10;99.90;;;;;;4995966;28;20038;-80
2021/01/13 11:34:56;;;;;;;23.38;11.68;;;-0.20;99.90;;;;;;4995845;28;20033;-80
2021/01/13 11:37:48;;;;;;;28.77;11.93;;;-0.30;99.90;;;;;;4995630;28;20502;-81
2021/01/13 11:40:35;;;;;;;30.67;12.60;;;-0.50;99.90;;;;;;4994174;28;20053;-81
2021/01/13 11:43:13;;;;;;;22.60;10.73;;;-0.60;99.90;;;;;;4995989;28;20506;-80
2021/01/13 11:46:09;;;;;;;19.65;9.10;;;-0.60;99.90;;;;;;4995983;28;20026;-79
2021/01/13 11:49:12;;;;;;;18.85;10.25;;;-0.60;99.90;;;;;;4996112;28;20533;-80
2021/01/13 11:51:42;;;;;;;19.02;9.57;;;-0.50;99.90;;;;;;4994636;28;20026;-80
2021/01/13 11:54:09;;;;;;;22.40;9.90;;;-0.50;99.90;;;;;;4995268;28;20034;-81
2021/01/13 11:56:35;;;;;;;49.63;21.50;;;-0.50;99.90;;;;;;4997244;28;20105;-80
2021/01/13 11:59:00;;;;;;;27.40;11.70;;;-0.50;99.90;;;;;;4995410;28;20118;-79
2021/01/13 12:01:27;;;;;;;25.92;12.85;;;-0.60;99.90;;;;;;4996364;28;20046;-79
2021/01/13 12:04:04;;;;;;;24.42;12.48;;;-0.60;99.90;;;;;;4996055;28;20428;-79
2021/01/13 12:06:30;;;;;;;29.80;14.13;;;-0.70;99.90;;;;;;4992201;28;20043;-80
2021/01/13 12:08:56;;;;;;;25.05;13.40;;;-0.80;99.90;;;;;;4991741;28;20529;-79
2021/01/13 12:11:22;;;;;;;31.90;15.13;;;-0.80;99.90;;;;;;4994137;28;20427;-81
2021/01/13 12:13:49;;;;;;;30.30;14.88;;;-0.80;99.90;;;;;;4991794;28;20038;-79
2021/01/13 12:16:16;;;;;;;30.27;14.82;;;-0.90;99.90;;;;;;4992551;28;20026;-80
2021/01/13 12:18:49;;;;;;;33.33;15.93;;;-0.90;99.90;;;;;;4992473;28;20030;-80
2021/01/13 12:21:14;;;;;;;32.97;14.63;;;-0.80;99.90;;;;;;5002141;28;20357;-79
2021/01/13 12:23:46;;;;;;;32.53;17.80;;;-0.90;99.90;;;;;;4978142;28;20034;-79
2021/01/13 12:26:22;;;;;;;49.85;23.15;;;-0.80;99.90;;;;;;4985997;28;20076;-79
2021/01/13 12:29:21;;;;;;;41.90;21.15;;;-0.80;99.90;;;;;;4994069;28;20027;-79
2021/01/13 12:31:49;;;;;;;63.88;37.47;;;-0.70;99.90;;;;;;4990672;28;20066;-80
2021/01/13 12:34:18;;;;;;;49.85;27.13;;;-0.70;99.90;;;;;;4991179;28;20030;-80
2021/01/13 12:36:51;;;;;;;47.40;21.23;;;-0.60;99.90;;;;;;4988435;28;20031;-80
2021/01/13 12:39:28;;;;;;;38.75;19.63;;;-0.70;99.90;;;;;;4993624;28;20527;-80
2021/01/13 12:41:55;;;;;;;45.63;20.67;;;-0.70;99.90;;;;;;4993837;28;20073;-81
2021/01/13 12:44:22;;;;;;;41.45;23.92;;;-0.70;99.90;;;;;;4991405;28;20031;-80
2021/01/13 12:46:53;;;;;;;41.53;21.05;;;-0.70;99.90;;;;;;4993102;28;20019;-80
2021/01/13 12:49:20;;;;;;;41.05;20.27;;;-0.70;99.90;;;;;;4993443;28;20027;-80
2021/01/13 12:51:56;;;;;;;39.00;19.92;;;-0.70;99.90;;;;;;4993660;28;20022;-80
2021/01/13 12:54:22;;;;;;;43.42;21.95;;;-0.70;99.90;;;;;;4992434;28;20026;-79
2021/01/13 12:56:48;;;;;;;51.80;21.98;;;-0.70;99.90;;;;;;4990991;28;20030;-79
2021/01/13 12:59:14;;;;;;;45.17;21.88;;;-0.60;99.90;;;;;;4990061;28;20026;-79